Fairfield, NE (68938)

10:11 PM CST on January 31, 2015 (GMT -0600)
Hastings 2.8 SE | Change Station
CLOSE
Current Station
Personal Weather Station
Location: Hastings, NE
Elevation: 1906 ft
Nearby Weather Stations
Active Advisory: Winter Weather Advisory

Elev 1906 ft 40.56 °N, 98.35 °W | Updated 5 seconds ago

Snow
Snow
30.7 °F
Feels Like 26 °F
N
5.0
Wind Variable Wind from NNE
Gusts 8.0 mph

Today
High -- | Low -- °F
--% Chance of Precip.
Yesterday
High -- | Low -- °F
Precip. -- in
7:42 AM 5:49 PM
Waxing Gibbous, 93% visible
Pressure 29.82 in
Visibility 0.8 miles
Clouds Mostly Cloudy 400 ft
Overcast 1100 ft
Windchill 26 °F
Dew Point 30 °F
Humidity 98%
Rainfall 0.18 in
Snow Depth Not available.
UV 0 out of 12
Pollen .10 out of 12
Air Quality Not available.
Flu Activity Not available.
SPECI KHSI 010404Z AUTO 02007KT 3/4SM -SN BR BKN004 OVC011 M01/M01 A2982 RMK AO2 P0001 T10061011

More Conditions Fewer Conditions

Pressure 29.82 in
Visibility 0.8 miles
Clouds Mostly Cloudy 400 ft
Overcast 1100 ft
Windchill 26 °F
Dew Point 30 °F
Humidity 98%
Rainfall 0.18 in
Snow Depth Not available.
UV 0 out of 12
Pollen .10 out of 12
Air Quality Not available.
Flu Activity Not available.
SPECI KHSI 010404Z AUTO 02007KT 3/4SM -SN BR BKN004 OVC011 M01/M01 A2982 RMK AO2 P0001 T10061011

More Conditions Fewer Conditions

10-Day Weather Forecast

Almanac

Astronomy

Jan. 31, 2015 Rise Set
Actual Time
Civil Twilight
Nautical Twilight
Astronomical Twilight
Moon
Length of Visible Light
Length of Day
Tomorrow will be .
, % of the Moon is Illuminated

Today's Extremes

State Highs State Lows

Community

WunderPhotos

Upload Photos

1,792,301 photos uploaded!

WunderBlogs® & News

Nearby

Air Quality

  Air Quality AQ Index Pollutant
Not available.

Snow Depth

Station Depth Elevation

Earthquake Activity

City Distance Mag. Time & Date
Minimum magnitude displayed is 2.5.

Coastal Water Temperatures

Place Temperature

Nearby Weather Stations